createdAt,value
2019-05-05T00:01:47.619Z,42.60
2019-05-05T00:04:24.318Z,42.80
2019-05-05T00:06:54.911Z,42.60
2019-05-05T00:09:25.220Z,42.90
2019-05-05T00:12:11.427Z,42.90
2019-05-05T00:14:41.792Z,43.20
2019-05-05T00:17:14.348Z,43.10
2019-05-05T00:19:42.492Z,43.50
2019-05-05T00:22:11.261Z,43.60
2019-05-05T00:24:40.064Z,43.80
2019-05-05T00:27:09.385Z,43.90
2019-05-05T00:29:38.199Z,43.60
2019-05-05T00:32:07.012Z,43.70
2019-05-05T00:34:35.839Z,43.50
2019-05-05T00:37:04.811Z,44.10
2019-05-05T00:39:34.499Z,44.80
2019-05-05T00:42:04.659Z,44.60
2019-05-05T00:44:35.076Z,44.70
2019-05-05T00:47:24.944Z,44.70
2019-05-05T00:49:56.119Z,44.60
2019-05-05T00:52:24.580Z,44.70
2019-05-05T00:54:55.448Z,44.90
2019-05-05T00:57:24.285Z,45.20
2019-05-05T00:59:54.405Z,45.20
2019-05-05T01:02:27.778Z,45.30
2019-05-05T01:05:01.123Z,45.40
2019-05-05T01:07:30.353Z,46.10
2019-05-05T01:09:59.118Z,46.20
2019-05-05T01:12:28.031Z,46.50
2019-05-05T01:14:56.851Z,46.40
2019-05-05T01:17:25.688Z,46.40
2019-05-05T01:20:03.233Z,46.80
2019-05-05T01:22:25.107Z,46.80
2019-05-05T01:24:55.437Z,47.00
2019-05-05T01:27:25.480Z,47.10
2019-05-05T01:29:54.664Z,46.90
2019-05-05T01:32:28.128Z,47.20
2019-05-05T01:34:56.964Z,47.10
2019-05-05T01:37:27.341Z,47.00
2019-05-05T01:40:04.977Z,46.90
2019-05-05T01:42:35.255Z,46.70
2019-05-05T01:45:04.612Z,46.50
2019-05-05T01:47:34.702Z,46.70
2019-05-05T01:50:17.213Z,46.50
2019-05-05T01:52:35.396Z,46.20
2019-05-05T01:55:05.994Z,46.30
2019-05-05T01:57:35.311Z,46.10
2019-05-05T02:00:07.336Z,46.20
2019-05-05T02:02:36.195Z,46.20
2019-05-05T02:05:06.833Z,46.10
2019-05-05T02:07:35.644Z,46.00
2019-05-05T02:10:06.400Z,46.20
2019-05-05T02:12:35.386Z,46.10
2019-05-05T02:15:06.603Z,46.20
2019-05-05T02:17:35.431Z,46.30
2019-05-05T02:20:05.867Z,46.40
2019-05-05T02:22:35.635Z,46.50
2019-05-05T02:25:06.172Z,46.50
2019-05-05T02:27:34.930Z,46.40
2019-05-05T02:30:06.608Z,46.50
2019-05-05T02:32:39.732Z,46.60
2019-05-05T02:35:18.643Z,46.90
2019-05-05T02:37:47.401Z,47.10
2019-05-05T02:40:17.220Z,47.60
2019-05-05T02:42:45.886Z,48.20
2019-05-05T02:45:24.766Z,48.80
2019-05-05T02:48:05.977Z,48.80
2019-05-05T02:50:52.400Z,48.80
2019-05-05T02:53:10.390Z,48.90
2019-05-05T02:55:39.232Z,49.00
2019-05-05T02:58:08.057Z,49.00
2019-05-05T03:00:40.910Z,49.10
2019-05-05T03:03:09.818Z,49.00
2019-05-05T03:05:38.684Z,48.80
2019-05-05T03:08:07.491Z,49.00
2019-05-05T03:10:36.330Z,48.80
2019-05-05T03:13:05.832Z,48.50
2019-05-05T03:15:55.643Z,48.40
2019-05-05T03:18:24.802Z,48.60
2019-05-05T03:21:02.379Z,48.60
2019-05-05T03:23:24.212Z,48.40
2019-05-05T03:25:54.578Z,48.30
2019-05-05T03:28:25.712Z,48.30
2019-05-05T03:30:55.760Z,48.40
2019-05-05T03:33:25.267Z,48.30
2019-05-05T03:35:54.304Z,48.10
2019-05-05T03:38:24.822Z,48.20
2019-05-05T03:40:55.312Z,47.90
2019-05-05T03:43:25.700Z,48.10
2019-05-05T03:45:56.186Z,47.90
2019-05-05T03:48:25.132Z,48.10
2019-05-05T03:50:54.207Z,47.90
2019-05-05T03:53:24.593Z,47.90
2019-05-05T03:55:54.583Z,48.10
2019-05-05T03:58:24.133Z,48.10
2019-05-05T04:00:55.975Z,48.20
2019-05-05T04:03:24.722Z,48.50
2019-05-05T04:05:57.866Z,48.50
2019-05-05T04:08:26.691Z,48.20
2019-05-05T04:10:55.511Z,48.60
2019-05-05T04:13:24.464Z,49.00
2019-05-05T04:16:06.963Z,49.30
2019-05-05T04:18:43.628Z,49.40
2019-05-05T04:21:14.396Z,49.60
2019-05-05T04:23:44.164Z,49.60
2019-05-05T04:26:14.228Z,49.70
2019-05-05T04:28:43.643Z,49.70
2019-05-05T04:31:13.540Z,49.80
2019-05-05T04:33:44.338Z,50.60
2019-05-05T04:36:14.562Z,50.00
2019-05-05T04:38:43.981Z,50.10
2019-05-05T04:41:14.035Z,50.40
2019-05-05T04:43:44.187Z,50.90
2019-05-05T04:46:14.042Z,50.90
2019-05-05T04:48:43.958Z,51.30
2019-05-05T04:51:13.984Z,52.20
2019-05-05T04:54:00.250Z,52.70
2019-05-05T04:56:30.097Z,52.80
2019-05-05T04:58:58.900Z,53.50
2019-05-05T05:01:27.708Z,54.20
2019-05-05T05:04:16.364Z,54.70
2019-05-05T05:06:46.692Z,55.00
2019-05-05T05:09:15.433Z,55.40
2019-05-05T05:11:44.386Z,56.40
2019-05-05T05:14:14.380Z,55.60
2019-05-05T05:16:43.744Z,55.60
2019-05-05T05:19:13.741Z,55.80
2019-05-05T05:21:43.652Z,56.00
2019-05-05T05:24:14.495Z,56.10
2019-05-05T05:26:44.162Z,56.30
2019-05-05T05:29:14.914Z,56.00
2019-05-05T05:31:44.294Z,56.00
2019-05-05T05:34:12.362Z,56.60
2019-05-05T05:36:41.239Z,57.20
2019-05-05T05:39:14.507Z,56.80
2019-05-05T05:41:44.036Z,56.70
2019-05-05T05:44:18.012Z,56.80
2019-05-05T05:46:54.636Z,56.80
2019-05-05T05:49:30.955Z,56.60
2019-05-05T05:52:12.548Z,57.30
2019-05-05T05:54:30.659Z,56.90
2019-05-05T05:56:59.394Z,57.20
2019-05-05T05:59:28.085Z,57.50
2019-05-05T06:02:09.162Z,57.50
2019-05-05T06:04:28.446Z,57.60
2019-05-05T06:06:57.175Z,57.60
2019-05-05T06:09:26.016Z,57.60
2019-05-05T06:11:54.724Z,57.60
2019-05-05T06:14:24.711Z,57.70
2019-05-05T06:16:53.949Z,57.70
2019-05-05T06:19:24.503Z,57.60
2019-05-05T06:21:54.292Z,58.60
2019-05-05T06:24:24.014Z,58.90
2019-05-05T06:26:54.744Z,58.00
2019-05-05T06:29:23.945Z,58.90
2019-05-05T06:31:53.818Z,58.50
2019-05-05T06:34:24.405Z,59.00
2019-05-05T06:39:59.063Z,58.60
2019-05-05T06:42:29.427Z,58.40
2019-05-05T06:45:04.235Z,58.20
2019-05-05T06:47:34.211Z,58.40
2019-05-05T06:50:04.477Z,58.00
2019-05-05T06:52:43.747Z,58.50
2019-05-05T06:55:04.618Z,58.30
2019-05-05T06:57:34.329Z,58.70
2019-05-05T07:00:06.084Z,58.30
2019-05-05T07:02:35.639Z,58.80
2019-05-05T07:05:05.255Z,59.10
2019-05-05T07:07:34.384Z,59.00
2019-05-05T07:10:04.572Z,59.20
2019-05-05T07:12:34.708Z,58.90
2019-05-05T07:15:05.510Z,58.60
2019-05-05T07:17:35.493Z,58.90
2019-05-05T07:20:08.172Z,58.70
2019-05-05T07:22:37.003Z,59.10
2019-05-05T07:25:06.182Z,58.60
2019-05-05T07:27:36.931Z,58.20
2019-05-05T07:30:07.086Z,58.10
2019-05-05T07:32:37.234Z,58.20
2019-05-05T07:35:08.221Z,58.30
2019-05-05T07:37:37.167Z,58.20
2019-05-05T07:40:07.826Z,57.30
2019-05-05T07:42:36.591Z,57.00
2019-05-05T07:45:19.446Z,57.10
2019-05-05T07:47:38.656Z,57.60
2019-05-05T07:50:14.539Z,58.10
2019-05-05T07:52:38.671Z,58.10
2019-05-05T07:55:07.469Z,57.80
2019-05-05T07:57:36.763Z,57.40
2019-05-05T08:00:07.400Z,56.20
2019-05-05T08:02:36.152Z,56.10
2019-05-05T08:05:07.171Z,56.60
2019-05-05T08:07:35.911Z,56.70
2019-05-05T08:10:06.339Z,57.00
2019-05-05T08:12:35.075Z,58.20
2019-05-05T08:15:07.821Z,57.60
2019-05-05T08:17:39.004Z,57.80
2019-05-05T08:20:19.207Z,58.00
2019-05-05T08:22:46.561Z,57.60
2019-05-05T08:25:34.524Z,58.00
2019-05-05T08:28:10.707Z,58.30
2019-05-05T08:30:44.193Z,58.40
2019-05-05T08:33:14.084Z,58.40
2019-05-05T08:35:44.829Z,58.40
2019-05-05T08:38:13.764Z,58.10
2019-05-05T08:40:43.806Z,57.40
2019-05-05T08:43:13.825Z,58.10
2019-05-05T08:45:44.336Z,57.20
2019-05-05T08:48:14.205Z,57.00
2019-05-05T08:50:43.871Z,57.00
2019-05-05T08:53:13.821Z,57.10
2019-05-05T08:55:44.328Z,57.30
2019-05-05T09:01:54.121Z,57.10
2019-05-05T09:04:24.698Z,56.50
2019-05-05T09:06:54.306Z,56.80
2019-05-05T09:09:24.149Z,56.70
2019-05-05T09:11:54.180Z,56.30
2019-05-05T09:14:24.024Z,56.70
2019-05-05T09:16:53.707Z,57.30
2019-05-05T09:19:24.013Z,58.20
2019-05-05T09:21:54.133Z,57.30
2019-05-05T09:24:39.200Z,57.50
2019-05-05T09:27:14.185Z,57.20
2019-05-05T09:29:44.109Z,57.60
2019-05-05T09:32:13.957Z,57.20
2019-05-05T09:34:43.579Z,57.50
2019-05-05T09:37:11.718Z,57.30
2019-05-05T09:39:40.452Z,58.40
2019-05-05T09:42:09.272Z,58.30
2019-05-05T09:44:38.090Z,58.20
2019-05-05T09:47:06.915Z,58.40
2019-05-05T09:49:35.655Z,58.40
2019-05-05T09:52:04.957Z,57.60
2019-05-05T09:54:34.555Z,58.00
2019-05-05T09:57:04.510Z,57.20
2019-05-05T09:59:34.652Z,56.80
2019-05-05T10:02:04.422Z,56.60
2019-05-05T10:04:34.539Z,56.70
2019-05-05T10:07:04.468Z,56.30
2019-05-05T10:09:34.489Z,55.60
2019-05-05T10:12:04.749Z,55.60
2019-05-05T10:14:35.105Z,55.00
2019-05-05T10:17:04.918Z,54.50
2019-05-05T10:19:33.857Z,53.60
2019-05-05T10:22:04.030Z,53.40
2019-05-05T10:24:37.346Z,52.20
2019-05-05T10:27:06.159Z,50.20
2019-05-05T10:29:34.903Z,49.30
2019-05-05T10:32:04.576Z,48.00
2019-05-05T10:34:33.598Z,47.60
2019-05-05T10:37:04.186Z,48.30
2019-05-05T10:39:40.520Z,45.90
2019-05-05T10:42:09.380Z,44.80
2019-05-05T10:44:38.087Z,43.70
2019-05-05T10:47:06.835Z,43.30
2019-05-05T10:49:35.666Z,42.00
2019-05-05T10:52:04.412Z,41.90
2019-05-05T10:54:43.831Z,41.00
2019-05-05T10:57:04.190Z,41.00
2019-05-05T10:59:34.425Z,39.60
2019-05-05T11:02:04.925Z,41.30
2019-05-05T11:04:34.023Z,41.10
2019-05-05T11:07:04.189Z,41.00
2019-05-05T11:09:33.938Z,39.10
2019-05-05T11:12:02.679Z,38.70
2019-05-05T11:14:33.661Z,38.10
2019-05-05T11:17:04.117Z,37.10
2019-05-05T11:19:33.576Z,35.00
2019-05-05T11:22:02.488Z,33.50
2019-05-05T11:24:31.197Z,32.00
2019-05-05T11:26:59.929Z,30.70
2019-05-05T11:29:28.684Z,30.90
2019-05-05T11:31:59.076Z,29.80
2019-05-05T11:34:28.200Z,29.70
2019-05-05T11:36:58.639Z,28.80
2019-05-05T11:39:27.407Z,27.90
2019-05-05T11:41:56.312Z,28.80
2019-05-05T11:44:25.131Z,28.40
2019-05-05T11:46:54.719Z,28.80
2019-05-05T11:49:24.483Z,29.90
2019-05-05T11:51:54.256Z,29.70
2019-05-05T11:54:24.517Z,29.80
2019-05-05T11:56:54.016Z,29.60
2019-05-05T11:59:23.732Z,29.50
2019-05-05T12:01:54.963Z,30.10
2019-05-05T12:04:23.904Z,29.80
2019-05-05T12:06:52.874Z,30.60
2019-05-05T12:09:24.807Z,30.40
2019-05-05T12:11:54.587Z,30.40
2019-05-05T12:14:27.121Z,30.50
2019-05-05T12:16:55.475Z,30.10
2019-05-05T12:19:24.485Z,29.40
2019-05-05T12:21:54.847Z,29.90
2019-05-05T12:24:25.387Z,29.60
2019-05-05T12:26:55.706Z,29.50
2019-05-05T12:29:24.662Z,29.50
2019-05-05T12:31:53.465Z,29.20
2019-05-05T12:34:23.613Z,28.30
2019-05-05T12:36:53.966Z,28.30
2019-05-05T12:39:22.994Z,27.90
2019-05-05T12:42:05.115Z,28.70
2019-05-05T12:44:35.536Z,28.20
2019-05-05T12:47:06.159Z,28.00
2019-05-05T12:49:35.008Z,26.80
2019-05-05T12:52:04.756Z,26.40
2019-05-05T12:54:33.668Z,26.20
2019-05-05T12:57:04.399Z,26.10
2019-05-05T12:59:33.859Z,26.90
2019-05-05T13:02:03.820Z,27.00
2019-05-05T13:04:33.872Z,27.50
2019-05-05T13:07:04.984Z,26.80
2019-05-05T13:09:34.238Z,25.60
2019-05-05T13:12:04.525Z,26.60
2019-05-05T13:14:33.830Z,26.90
2019-05-05T13:17:03.631Z,26.80
2019-05-05T13:19:43.839Z,26.90
2019-05-05T13:22:30.599Z,27.00
2019-05-05T13:25:07.715Z,25.50
2019-05-05T13:27:39.716Z,23.70
2019-05-05T13:30:09.328Z,23.20
2019-05-05T13:32:38.214Z,23.80
2019-05-05T13:35:07.888Z,22.50
2019-05-05T13:37:36.729Z,22.00
2019-05-05T13:40:07.543Z,21.60
2019-05-05T13:42:36.380Z,20.50
2019-05-05T13:45:15.587Z,20.00
2019-05-05T13:47:43.715Z,20.20
2019-05-05T13:50:23.292Z,20.10
2019-05-05T13:52:50.948Z,20.60
2019-05-05T13:55:21.124Z,20.40
2019-05-05T13:57:54.828Z,21.40
2019-05-05T14:00:25.620Z,21.20
2019-05-05T14:02:54.535Z,20.60
2019-05-05T14:05:24.030Z,19.80
2019-05-05T14:07:53.681Z,19.80
2019-05-05T14:10:23.654Z,19.60
2019-05-05T14:12:52.557Z,19.90
2019-05-05T14:15:23.358Z,19.80
2019-05-05T14:17:51.931Z,19.70
2019-05-05T14:20:20.674Z,18.70
2019-05-05T14:22:51.202Z,18.40
2019-05-05T14:25:21.638Z,17.30
2019-05-05T14:27:50.456Z,16.90
2019-05-05T14:30:23.632Z,16.60
2019-05-05T14:32:54.349Z,16.20
2019-05-05T14:35:40.577Z,16.20
2019-05-05T14:38:10.971Z,15.90
2019-05-05T14:40:39.827Z,16.10
2019-05-05T14:43:08.626Z,16.80
2019-05-05T14:45:37.457Z,17.70
2019-05-05T14:48:07.901Z,17.70
2019-05-05T14:50:36.623Z,17.50
2019-05-05T14:53:05.377Z,18.10
2019-05-05T14:55:34.209Z,19.00
2019-05-05T14:58:04.020Z,19.60
2019-05-05T15:00:33.685Z,20.20
2019-05-05T15:03:03.649Z,20.40
2019-05-05T15:05:40.111Z,21.20
2019-05-05T15:08:10.501Z,21.40
2019-05-05T15:10:56.711Z,21.90
2019-05-05T15:13:25.916Z,22.50
2019-05-05T15:15:54.775Z,22.90
2019-05-05T15:18:24.168Z,22.80
2019-05-05T15:20:54.676Z,23.30
2019-05-05T15:23:24.104Z,23.50
2019-05-05T15:25:54.029Z,23.70
2019-05-05T15:28:24.554Z,23.80
2019-05-05T15:30:54.512Z,23.70
2019-05-05T15:33:24.330Z,24.00
2019-05-05T15:35:54.036Z,23.80
2019-05-05T15:38:24.411Z,24.00
2019-05-05T15:40:54.748Z,24.00
2019-05-05T15:43:24.277Z,24.30
2019-05-05T15:45:54.105Z,24.60
2019-05-05T15:48:23.151Z,25.10
2019-05-05T15:50:52.060Z,24.80
2019-05-05T15:53:20.879Z,24.70
2019-05-05T15:55:50.856Z,24.60
2019-05-05T15:58:20.843Z,24.90
2019-05-05T16:00:49.536Z,24.90
2019-05-05T16:03:19.527Z,25.00
2019-05-05T16:05:48.277Z,25.00
2019-05-05T16:08:17.109Z,25.20
2019-05-05T16:10:46.601Z,25.40
2019-05-05T16:13:15.686Z,25.60
2019-05-05T16:15:46.092Z,25.70
2019-05-05T16:18:16.489Z,25.80
2019-05-05T16:20:58.614Z,26.00
2019-05-05T16:23:35.949Z,24.40
2019-05-05T16:26:04.828Z,22.20
2019-05-05T16:28:34.258Z,20.60
2019-05-05T16:31:02.262Z,19.50
2019-05-05T16:33:30.951Z,18.20
2019-05-05T16:35:59.623Z,18.10
2019-05-05T16:38:28.441Z,17.40
2019-05-05T16:40:57.256Z,16.80
2019-05-05T16:43:26.074Z,16.30
2019-05-05T16:45:56.708Z,16.00
2019-05-05T16:48:25.764Z,15.30
2019-05-05T16:50:54.229Z,14.50
2019-05-05T16:53:35.410Z,14.70
2019-05-05T16:56:09.081Z,14.70
2019-05-05T16:58:41.264Z,14.70
2019-05-05T17:01:14.425Z,14.10
2019-05-05T17:03:45.447Z,14.00
2019-05-05T17:06:14.036Z,13.80
2019-05-05T17:08:44.419Z,13.40
2019-05-05T17:11:15.809Z,13.90
2019-05-05T17:13:50.523Z,14.20
2019-05-05T17:16:29.904Z,14.30
2019-05-05T17:19:15.511Z,14.10
2019-05-05T17:21:53.616Z,14.40
2019-05-05T17:24:23.992Z,14.80
2019-05-05T17:26:54.966Z,15.00
2019-05-05T17:29:25.319Z,15.10
2019-05-05T17:31:54.214Z,15.90
2019-05-05T17:34:24.751Z,16.10
2019-05-05T17:36:53.984Z,16.30
2019-05-05T17:39:23.940Z,16.60
2019-05-05T17:41:56.081Z,17.20
2019-05-05T17:44:44.367Z,18.20
2019-05-05T17:47:21.951Z,19.50
2019-05-05T17:50:04.172Z,19.60
2019-05-05T17:52:51.320Z,20.50
2019-05-05T17:55:30.007Z,21.40
2019-05-05T17:58:02.130Z,22.10
2019-05-05T18:00:34.080Z,22.90
2019-05-05T18:03:04.181Z,23.10
2019-05-05T18:05:54.343Z,23.50
2019-05-05T18:08:35.815Z,23.70
2019-05-05T18:11:13.932Z,24.00
2019-05-05T18:13:44.174Z,24.50
2019-05-05T18:16:14.047Z,24.70
2019-05-05T18:18:44.467Z,24.70
2019-05-05T18:21:14.202Z,24.90
2019-05-05T18:23:43.844Z,25.30
2019-05-05T18:26:13.644Z,25.20
2019-05-05T18:28:44.736Z,25.70
2019-05-05T18:31:13.932Z,25.30
2019-05-05T18:33:42.931Z,25.50
2019-05-05T18:36:14.176Z,25.80
2019-05-05T18:38:44.446Z,26.10
2019-05-05T18:41:15.085Z,25.90
2019-05-05T18:43:51.256Z,26.70
2019-05-05T18:46:20.789Z,26.70
2019-05-05T18:48:49.800Z,27.40
2019-05-05T18:51:18.648Z,27.30
2019-05-05T18:53:47.456Z,27.40
2019-05-05T18:56:16.281Z,27.70
2019-05-05T18:58:48.099Z,28.10
2019-05-05T19:01:36.338Z,28.30
2019-05-05T19:04:07.535Z,28.30
2019-05-05T19:06:49.112Z,28.40
2019-05-05T19:09:19.787Z,28.30
2019-05-05T19:11:50.562Z,28.50
2019-05-05T19:14:19.367Z,28.40
2019-05-05T19:16:48.305Z,28.60
2019-05-05T19:19:17.116Z,28.60
2019-05-05T19:22:05.112Z,28.80
2019-05-05T19:24:35.515Z,29.00
2019-05-05T19:27:05.680Z,29.20
2019-05-05T19:29:34.436Z,29.20
2019-05-05T19:32:04.112Z,29.70
2019-05-05T19:34:35.108Z,30.00
2019-05-05T19:37:03.951Z,31.20
2019-05-05T19:39:34.452Z,29.90
2019-05-05T19:42:05.438Z,30.10
2019-05-05T19:44:34.275Z,30.60
2019-05-05T19:47:07.130Z,30.80
2019-05-05T19:49:39.020Z,31.00
2019-05-05T19:52:08.895Z,31.10
2019-05-05T19:54:37.907Z,31.20
2019-05-05T19:57:06.728Z,31.50
2019-05-05T19:59:36.129Z,31.40
2019-05-05T20:02:05.728Z,31.80
2019-05-05T20:04:36.569Z,31.80
2019-05-05T20:07:05.420Z,32.00
2019-05-05T20:09:35.048Z,32.10
2019-05-05T20:12:04.995Z,32.20
2019-05-05T20:14:34.269Z,32.00
2019-05-05T20:17:10.772Z,32.00
2019-05-05T20:19:41.151Z,32.00
2019-05-05T20:22:09.931Z,31.90
2019-05-05T20:24:38.691Z,32.30
2019-05-05T20:27:07.519Z,32.80
2019-05-05T20:29:37.504Z,33.10
2019-05-05T20:32:06.460Z,33.60
2019-05-05T20:34:42.411Z,33.90
2019-05-05T20:37:14.121Z,33.90
2019-05-05T20:39:43.960Z,33.90
2019-05-05T20:42:14.943Z,34.00
2019-05-05T20:44:43.870Z,34.20
2019-05-05T20:47:12.779Z,34.30
2019-05-05T20:49:41.459Z,34.70
2019-05-05T20:52:10.284Z,34.80
2019-05-05T20:54:39.056Z,35.20
2019-05-05T20:57:07.812Z,35.70
2019-05-05T20:59:36.519Z,36.50
2019-05-05T21:02:05.333Z,37.10
2019-05-05T21:04:34.623Z,38.10
2019-05-05T21:07:04.472Z,38.10
2019-05-05T21:09:34.468Z,38.10
2019-05-05T21:12:04.740Z,38.90
2019-05-05T21:14:37.102Z,39.30
2019-05-05T21:17:04.280Z,40.60
2019-05-05T21:19:34.516Z,41.40
2019-05-05T21:22:21.211Z,41.90
2019-05-05T21:24:50.332Z,42.60
2019-05-05T21:27:20.156Z,43.50
2019-05-05T21:29:48.839Z,44.10
2019-05-05T21:32:17.668Z,44.10
2019-05-05T21:34:46.449Z,44.40
2019-05-05T21:37:15.279Z,44.50
2019-05-05T21:39:45.453Z,44.40
2019-05-05T21:42:14.331Z,45.10
2019-05-05T21:44:44.228Z,45.90
2019-05-05T21:47:14.156Z,46.30
2019-05-05T21:49:43.074Z,46.50
2019-05-05T21:52:19.467Z,46.50
2019-05-05T21:54:49.855Z,46.60
2019-05-05T21:57:36.484Z,46.50
2019-05-05T22:00:10.509Z,46.60
2019-05-05T22:02:39.339Z,46.10
2019-05-05T22:05:08.421Z,45.70
2019-05-05T22:07:37.251Z,45.50
2019-05-05T22:10:06.415Z,45.30
2019-05-05T22:12:36.264Z,45.40
2019-05-05T22:15:06.352Z,45.30
2019-05-05T22:17:36.328Z,45.50
2019-05-05T22:20:07.578Z,46.20
2019-05-05T22:22:37.962Z,47.70
2019-05-05T22:25:07.655Z,49.60
2019-05-05T22:27:35.628Z,50.80
2019-05-05T22:30:10.269Z,54.70
2019-05-05T22:32:38.556Z,52.70
2019-05-05T22:35:07.591Z,53.10
2019-05-05T22:37:36.401Z,53.30
2019-05-05T22:40:05.332Z,53.80
2019-05-05T22:42:34.250Z,53.90
2019-05-05T22:45:04.631Z,53.80
2019-05-05T22:47:34.487Z,53.90
2019-05-05T22:50:04.470Z,53.90
2019-05-05T22:52:34.407Z,53.80
2019-05-05T22:55:04.505Z,53.80
2019-05-05T22:57:34.442Z,54.00
2019-05-05T23:00:05.198Z,53.90
2019-05-05T23:02:35.604Z,53.90
2019-05-05T23:05:16.494Z,53.90
2019-05-05T23:07:45.251Z,53.70
2019-05-05T23:10:14.139Z,53.50
2019-05-05T23:12:43.981Z,53.70
2019-05-05T23:15:14.306Z,53.60
2019-05-05T23:17:55.874Z,54.80
2019-05-05T23:20:45.320Z,53.70
2019-05-05T23:23:15.722Z,53.70
2019-05-05T23:25:46.149Z,54.30
2019-05-05T23:28:14.895Z,54.70
2019-05-05T23:30:44.719Z,54.90
2019-05-05T23:33:14.285Z,55.30
2019-05-05T23:35:43.730Z,55.60
2019-05-05T23:38:14.311Z,55.90
2019-05-05T23:40:42.832Z,56.30
2019-05-05T23:43:13.803Z,56.30
2019-05-05T23:45:41.984Z,56.80
2019-05-05T23:48:10.735Z,57.50
2019-05-05T23:50:39.504Z,58.10
2019-05-05T23:53:08.325Z,58.50
2019-05-05T23:55:37.088Z,59.30
2019-05-05T23:58:05.869Z,59.90
